sensor_id;sensor_type;location;lat;lon;timestamp;pressure;altitude;pressure_sealevel;temperature;humidity
39363;BME280;25088;43.238;23.110;2023-03-04T00:01:18;96518.31;;;6.35;100.00
39363;BME280;25088;43.238;23.110;2023-03-04T00:03:44;96538.41;;;6.46;100.00
39363;BME280;25088;43.238;23.110;2023-03-04T00:06:09;96528.84;;;6.43;100.00
39363;BME280;25088;43.238;23.110;2023-03-04T00:08:35;96543.19;;;6.32;100.00
39363;BME280;25088;43.238;23.110;2023-03-04T00:11:00;96538.44;;;6.28;100.00
39363;BME280;25088;43.238;23.110;2023-03-04T00:13:26;96512.44;;;6.08;100.00
39363;BME280;25088;43.238;23.110;2023-03-04T00:15:51;96540.53;;;6.26;100.00
39363;BME280;25088;43.238;23.110;2023-03-04T00:18:17;96544.19;;;6.19;100.00
39363;BME280;25088;43.238;23.110;2023-03-04T00:20:44;96525.75;;;6.10;100.00
39363;BME280;25088;43.238;23.110;2023-03-04T00:23:10;96531.25;;;6.03;100.00
39363;BME280;25088;43.238;23.110;2023-03-04T00:25:36;96536.81;;;6.08;100.00
39363;BME280;25088;43.238;23.110;2023-03-04T00:28:01;96521.69;;;6.01;100.00
39363;BME280;25088;43.238;23.110;2023-03-04T00:30:27;96521.69;;;6.01;100.00
39363;BME280;25088;43.238;23.110;2023-03-04T00:32:52;96524.38;;;6.01;100.00
39363;BME280;25088;43.238;23.110;2023-03-04T00:35:18;96525.88;;;5.96;100.00
39363;BME280;25088;43.238;23.110;2023-03-04T00:37:43;96530.94;;;5.93;100.00
39363;BME280;25088;43.238;23.110;2023-03-04T00:40:09;96523.88;;;5.92;100.00
39363;BME280;25088;43.238;23.110;2023-03-04T00:42:35;96516.25;;;5.82;100.00
39363;BME280;25088;43.238;23.110;2023-03-04T00:45:00;96522.84;;;5.86;100.00
39363;BME280;25088;43.238;23.110;2023-03-04T00:47:26;96495.31;;;5.71;100.00
39363;BME280;25088;43.238;23.110;2023-03-04T00:49:51;96525.13;;;5.89;100.00
39363;BME280;25088;43.238;23.110;2023-03-04T00:52:17;96523.47;;;5.88;100.00
39363;BME280;25088;43.238;23.110;2023-03-04T00:54:42;96526.38;;;5.93;100.00
39363;BME280;25088;43.238;23.110;2023-03-04T00:57:08;96520.13;;;5.93;100.00
39363;BME280;25088;43.238;23.110;2023-03-04T00:59:33;96506.59;;;5.86;100.00
39363;BME280;25088;43.238;23.110;2023-03-04T01:01:59;96510.69;;;5.95;100.00
39363;BME280;25088;43.238;23.110;2023-03-04T01:04:24;96501.34;;;5.91;100.00
39363;BME280;25088;43.238;23.110;2023-03-04T01:06:50;96486.38;;;5.89;100.00
39363;BME280;25088;43.238;23.110;2023-03-04T01:09:15;96508.38;;;5.99;100.00
39363;BME280;25088;43.238;23.110;2023-03-04T01:11:41;96511.06;;;5.99;100.00
39363;BME280;25088;43.238;23.110;2023-03-04T01:14:06;96489.66;;;5.91;100.00
39363;BME280;25088;43.238;23.110;2023-03-04T01:16:32;96500.69;;;5.96;100.00
39363;BME280;25088;43.238;23.110;2023-03-04T01:18:57;96500.69;;;5.96;100.00
39363;BME280;25088;43.238;23.110;2023-03-04T01:21:23;96494.66;;;5.94;100.00
39363;BME280;25088;43.238;23.110;2023-03-04T01:23:48;96496.09;;;5.96;100.00
39363;BME280;25088;43.238;23.110;2023-03-04T01:26:14;96492.94;;;6.00;100.00
39363;BME280;25088;43.238;23.110;2023-03-04T01:28:39;96486.25;;;6.02;100.00
39363;BME280;25088;43.238;23.110;2023-03-04T01:31:05;96479.63;;;5.98;100.00
39363;BME280;25088;43.238;23.110;2023-03-04T01:33:30;96478.41;;;5.94;100.00
39363;BME280;25088;43.238;23.110;2023-03-04T01:35:56;96438.81;;;5.75;100.00
39363;BME280;25088;43.238;23.110;2023-03-04T01:38:22;96441.81;;;5.85;100.00
39363;BME280;25088;43.238;23.110;2023-03-04T01:40:48;96488.28;;;6.07;100.00
39363;BME280;25088;43.238;23.110;2023-03-04T01:43:34;96486.16;;;6.09;100.00
39363;BME280;25088;43.238;23.110;2023-03-04T01:46:01;96474.53;;;6.02;100.00
39363;BME280;25088;43.238;23.110;2023-03-04T01:48:31;96463.34;;;5.98;100.00
39363;BME280;25088;43.238;23.110;2023-03-04T01:50:59;96474.34;;;6.03;100.00
39363;BME280;25088;43.238;23.110;2023-03-04T01:53:28;96474.19;;;5.98;100.00
39363;BME280;25088;43.238;23.110;2023-03-04T01:55:57;96465.09;;;5.92;100.00
39363;BME280;25088;43.238;23.110;2023-03-04T01:58:28;96466.50;;;5.95;100.00
39363;BME280;25088;43.238;23.110;2023-03-04T02:00:54;96470.09;;;5.89;100.00
39363;BME280;25088;43.238;23.110;2023-03-04T02:03:20;96470.94;;;5.89;100.00
39363;BME280;25088;43.238;23.110;2023-03-04T02:05:51;96471.34;;;5.93;100.00
39363;BME280;25088;43.238;23.110;2023-03-04T02:08:20;96473.13;;;5.99;100.00
39363;BME280;25088;43.238;23.110;2023-03-04T02:10:46;96460.03;;;5.96;100.00
39363;BME280;25088;43.238;23.110;2023-03-04T02:13:13;96463.94;;;6.00;100.00
39363;BME280;25088;43.238;23.110;2023-03-04T02:15:40;96471.16;;;6.06;100.00
39363;BME280;25088;43.238;23.110;2023-03-04T02:18:24;96476.00;;;6.04;100.00
39363;BME280;25088;43.238;23.110;2023-03-04T02:23:34;96472.75;;;6.14;100.00
39363;BME280;25088;43.238;23.110;2023-03-04T02:26:06;96473.56;;;6.14;100.00
39363;BME280;25088;43.238;23.110;2023-03-04T02:28:32;96474.84;;;6.12;100.00
39363;BME280;25088;43.238;23.110;2023-03-04T02:30:58;96483.19;;;6.10;100.00
39363;BME280;25088;43.238;23.110;2023-03-04T02:33:23;96472.69;;;6.02;100.00
39363;BME280;25088;43.238;23.110;2023-03-04T02:35:49;96483.28;;;6.04;100.00
39363;BME280;25088;43.238;23.110;2023-03-04T02:38:14;96469.84;;;5.97;100.00
39363;BME280;25088;43.238;23.110;2023-03-04T02:40:42;96477.72;;;5.99;100.00
39363;BME280;25088;43.238;23.110;2023-03-04T02:43:11;96498.72;;;6.03;100.00
39363;BME280;25088;43.238;23.110;2023-03-04T02:45:49;96474.41;;;5.96;100.00
39363;BME280;25088;43.238;23.110;2023-03-04T02:48:17;96497.72;;;6.16;100.00
39363;BME280;25088;43.238;23.110;2023-03-04T02:50:46;96495.63;;;6.18;100.00
39363;BME280;25088;43.238;23.110;2023-03-04T02:53:12;96484.69;;;6.25;100.00
39363;BME280;25088;43.238;23.110;2023-03-04T02:55:37;96492.25;;;6.34;100.00
39363;BME280;25088;43.238;23.110;2023-03-04T02:58:03;96497.81;;;6.39;100.00
39363;BME280;25088;43.238;23.110;2023-03-04T03:00:29;96498.19;;;6.43;100.00
39363;BME280;25088;43.238;23.110;2023-03-04T03:02:55;96497.72;;;6.46;100.00
39363;BME280;25088;43.238;23.110;2023-03-04T03:05:25;96496.69;;;6.47;100.00
39363;BME280;25088;43.238;23.110;2023-03-04T03:07:51;96491.19;;;6.35;100.00
39363;BME280;25088;43.238;23.110;2023-03-04T03:10:17;96473.13;;;6.17;100.00
39363;BME280;25088;43.238;23.110;2023-03-04T03:12:42;96498.09;;;6.19;100.00
39363;BME280;25088;43.238;23.110;2023-03-04T03:15:08;96497.72;;;6.16;100.00
39363;BME280;25088;43.238;23.110;2023-03-04T03:17:34;96493.31;;;6.03;100.00
39363;BME280;25088;43.238;23.110;2023-03-04T03:19:59;96497.81;;;6.09;100.00
39363;BME280;25088;43.238;23.110;2023-03-04T03:22:25;96491.81;;;6.07;100.00
39363;BME280;25088;43.238;23.110;2023-03-04T03:24:50;96466.75;;;5.93;100.00
39363;BME280;25088;43.238;23.110;2023-03-04T03:27:16;96473.88;;;6.06;100.00
39363;BME280;25088;43.238;23.110;2023-03-04T03:29:41;96487.69;;;6.16;100.00
39363;BME280;25088;43.238;23.110;2023-03-04T03:32:07;96484.63;;;6.13;100.00
39363;BME280;25088;43.238;23.110;2023-03-04T03:34:33;96479.75;;;6.03;100.00
39363;BME280;25088;43.238;23.110;2023-03-04T03:36:58;96485.09;;;6.10;100.00
39363;BME280;25088;43.238;23.110;2023-03-04T03:39:24;96489.22;;;6.12;100.00
39363;BME280;25088;43.238;23.110;2023-03-04T03:41:49;96478.31;;;6.01;100.00
39363;BME280;25088;43.238;23.110;2023-03-04T03:44:15;96487.41;;;6.06;100.00
39363;BME280;25088;43.238;23.110;2023-03-04T03:46:40;96493.31;;;6.03;100.00
39363;BME280;25088;43.238;23.110;2023-03-04T03:49:06;96488.34;;;6.00;100.00
39363;BME280;25088;43.238;23.110;2023-03-04T03:51:31;96490.66;;;5.96;100.00
39363;BME280;25088;43.238;23.110;2023-03-04T03:53:57;96486.91;;;5.98;100.00
39363;BME280;25088;43.238;23.110;2023-03-04T03:56:22;96489.41;;;5.99;100.00
39363;BME280;25088;43.238;23.110;2023-03-04T03:58:48;96460.53;;;5.86;100.00
39363;BME280;25088;43.238;23.110;2023-03-04T04:01:13;96446.41;;;5.84;100.00
39363;BME280;25088;43.238;23.110;2023-03-04T04:03:39;96486.16;;;6.09;100.00
39363;BME280;25088;43.238;23.110;2023-03-04T04:06:04;96474.00;;;6.11;100.00
39363;BME280;25088;43.238;23.110;2023-03-04T04:08:30;96483.56;;;6.14;100.00
39363;BME280;25088;43.238;23.110;2023-03-04T04:10:55;96453.09;;;6.00;100.00
39363;BME280;25088;43.238;23.110;2023-03-04T04:13:21;96463.41;;;6.10;100.00
39363;BME280;25088;43.238;23.110;2023-03-04T04:15:46;96478.75;;;6.16;100.00
39363;BME280;25088;43.238;23.110;2023-03-04T04:18:12;96454.63;;;5.96;100.00
39363;BME280;25088;43.238;23.110;2023-03-04T04:20:37;96466.06;;;5.98;100.00
39363;BME280;25088;43.238;23.110;2023-03-04T04:23:03;96461.56;;;5.92;100.00
39363;BME280;25088;43.238;23.110;2023-03-04T04:25:29;96447.03;;;5.68;100.00
39363;BME280;25088;43.238;23.110;2023-03-04T04:27:54;96467.88;;;5.67;100.00
39363;BME280;25088;43.238;23.110;2023-03-04T04:30:20;96464.41;;;5.60;100.00
39363;BME280;25088;43.238;23.110;2023-03-04T04:32:45;96460.13;;;5.53;100.00
39363;BME280;25088;43.238;23.110;2023-03-04T04:35:11;96469.97;;;5.47;100.00
39363;BME280;25088;43.238;23.110;2023-03-04T04:37:36;96475.16;;;5.49;100.00
39363;BME280;25088;43.238;23.110;2023-03-04T04:40:02;96468.09;;;5.48;100.00
39363;BME280;25088;43.238;23.110;2023-03-04T04:42:28;96446.41;;;5.29;100.00
39363;BME280;25088;43.238;23.110;2023-03-04T04:44:54;96468.53;;;5.44;100.00
39363;BME280;25088;43.238;23.110;2023-03-04T04:47:21;96465.91;;;5.38;100.00
39363;BME280;25088;43.238;23.110;2023-03-04T04:49:47;96458.31;;;5.28;100.00
39363;BME280;25088;43.238;23.110;2023-03-04T04:52:12;96472.59;;;5.35;100.00
39363;BME280;25088;43.238;23.110;2023-03-04T04:54:37;96401.97;;;5.00;100.00
39363;BME280;25088;43.238;23.110;2023-03-04T04:57:03;96472.91;;;5.45;100.00
39363;BME280;25088;43.238;23.110;2023-03-04T04:59:29;96427.59;;;5.16;100.00
39363;BME280;25088;43.238;23.110;2023-03-04T05:01:54;96424.69;;;5.17;100.00
39363;BME280;25088;43.238;23.110;2023-03-04T05:04:19;96454.03;;;5.39;100.00
39363;BME280;25088;43.238;23.110;2023-03-04T05:06:45;96470.41;;;5.44;100.00
39363;BME280;25088;43.238;23.110;2023-03-04T05:09:11;96458.66;;;5.32;100.00
39363;BME280;25088;43.238;23.110;2023-03-04T05:11:37;96477.25;;;5.47;100.00
39363;BME280;25088;43.238;23.110;2023-03-04T05:14:02;96474.38;;;5.41;100.00
39363;BME280;25088;43.238;23.110;2023-03-04T05:16:28;96474.53;;;5.47;100.00
39363;BME280;25088;43.238;23.110;2023-03-04T05:18:53;96464.03;;;5.38;100.00
39363;BME280;25088;43.238;23.110;2023-03-04T05:21:19;96471.91;;;5.40;100.00
39363;BME280;25088;43.238;23.110;2023-03-04T05:23:44;96443.31;;;5.26;100.00
39363;BME280;25088;43.238;23.110;2023-03-04T05:26:13;96492.53;;;5.59;100.00
39363;BME280;25088;43.238;23.110;2023-03-04T05:28:39;96491.31;;;5.55;100.00
39363;BME280;25088;43.238;23.110;2023-03-04T05:31:05;96485.81;;;5.62;100.00
39363;BME280;25088;43.238;23.110;2023-03-04T05:33:31;96492.84;;;5.69;100.00
39363;BME280;25088;43.238;23.110;2023-03-04T05:35:57;96469.22;;;5.58;100.00
39363;BME280;25088;43.238;23.110;2023-03-04T05:38:22;96491.34;;;5.74;100.00
39363;BME280;25088;43.238;23.110;2023-03-04T05:40:48;96498.78;;;5.78;100.00
39363;BME280;25088;43.238;23.110;2023-03-04T05:43:15;96493.03;;;5.86;100.00
39363;BME280;25088;43.238;23.110;2023-03-04T05:45:41;96495.31;;;5.89;100.00
39363;BME280;25088;43.238;23.110;2023-03-04T05:48:07;96488.00;;;5.90;100.00
39363;BME280;25088;43.238;23.110;2023-03-04T05:50:33;96465.22;;;5.79;100.00
39363;BME280;25088;43.238;23.110;2023-03-04T05:52:59;96452.88;;;5.83;100.00
39363;BME280;25088;43.238;23.110;2023-03-04T05:55:25;96495.81;;;6.16;100.00
39363;BME280;25088;43.238;23.110;2023-03-04T05:57:53;96492.66;;;6.19;100.00
39363;BME280;25088;43.238;23.110;2023-03-04T06:00:18;96501.78;;;6.25;100.00
39363;BME280;25088;43.238;23.110;2023-03-04T06:02:44;96500.72;;;6.26;100.00
39363;BME280;25088;43.238;23.110;2023-03-04T06:05:12;96509.34;;;6.35;100.00
39363;BME280;25088;43.238;23.110;2023-03-04T06:07:37;96505.00;;;6.34;100.00
39363;BME280;25088;43.238;23.110;2023-03-04T06:10:04;96509.75;;;6.50;100.00
39363;BME280;25088;43.238;23.110;2023-03-04T06:12:29;96503.53;;;6.50;100.00
39363;BME280;25088;43.238;23.110;2023-03-04T06:14:55;96516.53;;;6.59;100.00
39363;BME280;25088;43.238;23.110;2023-03-04T06:17:20;96521.78;;;6.72;100.00
39363;BME280;25088;43.238;23.110;2023-03-04T06:19:46;96522.72;;;6.78;100.00
39363;BME280;25088;43.238;23.110;2023-03-04T06:22:11;96523.91;;;6.82;100.00
39363;BME280;25088;43.238;23.110;2023-03-04T06:24:37;96499.56;;;6.76;100.00
39363;BME280;25088;43.238;23.110;2023-03-04T06:27:03;96525.38;;;6.96;100.00
39363;BME280;25088;43.238;23.110;2023-03-04T06:29:28;96529.88;;;7.14;100.00
39363;BME280;25088;43.238;23.110;2023-03-04T06:31:54;96524.09;;;7.22;100.00
39363;BME280;25088;43.238;23.110;2023-03-04T06:34:19;96522.34;;;7.28;100.00
39363;BME280;25088;43.238;23.110;2023-03-04T06:36:45;96534.25;;;7.50;100.00
39363;BME280;25088;43.238;23.110;2023-03-04T06:39:11;96522.91;;;7.65;100.00
39363;BME280;25088;43.238;23.110;2023-03-04T06:41:37;96529.28;;;7.83;100.00
39363;BME280;25088;43.238;23.110;2023-03-04T06:44:03;96517.56;;;7.94;100.00
39363;BME280;25088;43.238;23.110;2023-03-04T06:46:28;96530.41;;;8.10;100.00
39363;BME280;25088;43.238;23.110;2023-03-04T06:48:54;96525.06;;;8.27;100.00
39363;BME280;25088;43.238;23.110;2023-03-04T06:51:19;96533.69;;;8.36;100.00
39363;BME280;25088;43.238;23.110;2023-03-04T06:53:44;96533.56;;;8.42;100.00
39363;BME280;25088;43.238;23.110;2023-03-04T06:56:12;96534.03;;;8.51;100.00
39363;BME280;25088;43.238;23.110;2023-03-04T06:58:41;96531.81;;;8.65;100.00
39363;BME280;25088;43.238;23.110;2023-03-04T07:03:39;96529.66;;;8.95;100.00
39363;BME280;25088;43.238;23.110;2023-03-04T07:06:05;96527.44;;;9.09;98.00
39363;BME280;25088;43.238;23.110;2023-03-04T07:08:30;96536.84;;;9.18;97.64
39363;BME280;25088;43.238;23.110;2023-03-04T07:10:56;96535.63;;;9.26;96.65
39363;BME280;25088;43.238;23.110;2023-03-04T07:13:21;96539.84;;;9.33;95.98
39363;BME280;25088;43.238;23.110;2023-03-04T07:15:47;96529.94;;;9.27;91.60
39363;BME280;25088;43.238;23.110;2023-03-04T07:18:12;96527.69;;;9.24;90.77
39363;BME280;25088;43.238;23.110;2023-03-04T07:20:38;96520.44;;;9.30;90.69
39363;BME280;25088;43.238;23.110;2023-03-04T07:23:03;96523.81;;;9.37;91.32
39363;BME280;25088;43.238;23.110;2023-03-04T07:25:29;96528.94;;;9.50;91.51
39363;BME280;25088;43.238;23.110;2023-03-04T07:27:54;96529.25;;;9.54;90.36
39363;BME280;25088;43.238;23.110;2023-03-04T07:30:20;96535.53;;;9.54;87.28
39363;BME280;25088;43.238;23.110;2023-03-04T07:32:45;96536.69;;;9.58;82.14
39363;BME280;25088;43.238;23.110;2023-03-04T07:35:10;96531.56;;;9.62;81.58
39363;BME280;25088;43.238;23.110;2023-03-04T07:37:36;96525.03;;;9.63;81.18
39363;BME280;25088;43.238;23.110;2023-03-04T07:40:02;96521.63;;;9.73;79.65
39363;BME280;25088;43.238;23.110;2023-03-04T07:42:27;96523.94;;;9.81;77.08
39363;BME280;25088;43.238;23.110;2023-03-04T07:44:53;96528.88;;;9.84;77.71
39363;BME280;25088;43.238;23.110;2023-03-04T07:47:19;96530.72;;;9.78;77.57
39363;BME280;25088;43.238;23.110;2023-03-04T07:49:45;96529.06;;;9.77;78.68
39363;BME280;25088;43.238;23.110;2023-03-04T07:52:10;96532.13;;;9.81;80.36
39363;BME280;25088;43.238;23.110;2023-03-04T07:54:38;96521.97;;;9.76;80.90
39363;BME280;25088;43.238;23.110;2023-03-04T07:57:04;96521.44;;;9.79;79.33
39363;BME280;25088;43.238;23.110;2023-03-04T07:59:29;96524.44;;;9.78;80.58
39363;BME280;25088;43.238;23.110;2023-03-04T08:01:55;96530.22;;;9.81;81.76
39363;BME280;25088;43.238;23.110;2023-03-04T08:04:20;96533.22;;;9.63;81.30
39363;BME280;25088;43.238;23.110;2023-03-04T08:06:46;96524.28;;;9.68;84.06
39363;BME280;25088;43.238;23.110;2023-03-04T08:09:13;96519.03;;;9.61;83.66
39363;BME280;25088;43.238;23.110;2023-03-04T08:11:39;96530.34;;;9.70;83.84
39363;BME280;25088;43.238;23.110;2023-03-04T08:14:05;96525.19;;;9.73;84.74
39363;BME280;25088;43.238;23.110;2023-03-04T08:16:31;96517.53;;;9.70;84.18
39363;BME280;25088;43.238;23.110;2023-03-04T08:19:00;96520.56;;;9.74;83.83
39363;BME280;25088;43.238;23.110;2023-03-04T08:21:26;96514.06;;;9.75;84.38
39363;BME280;25088;43.238;23.110;2023-03-04T08:23:53;96509.56;;;9.69;84.07
39363;BME280;25088;43.238;23.110;2023-03-04T08:26:28;96521.44;;;9.79;84.05
39363;BME280;25088;43.238;23.110;2023-03-04T08:28:55;96516.09;;;9.84;81.97
39363;BME280;25088;43.238;23.110;2023-03-04T08:31:21;96527.16;;;9.78;82.49
39363;BME280;25088;43.238;23.110;2023-03-04T08:33:46;96518.16;;;9.77;81.02
39363;BME280;25088;43.238;23.110;2023-03-04T08:36:13;96496.06;;;9.57;78.33
39363;BME280;25088;43.238;23.110;2023-03-04T08:38:38;96511.47;;;9.68;78.86
39363;BME280;25088;43.238;23.110;2023-03-04T08:41:04;96511.22;;;9.87;76.99
39363;BME280;25088;43.238;23.110;2023-03-04T08:43:31;96507.19;;;9.94;75.79
39363;BME280;25088;43.238;23.110;2023-03-04T08:45:57;96503.50;;;10.00;76.90
39363;BME280;25088;43.238;23.110;2023-03-04T08:48:23;96506.16;;;10.17;77.90
39363;BME280;25088;43.238;23.110;2023-03-04T08:50:49;96485.69;;;10.15;76.60
39363;BME280;25088;43.238;23.110;2023-03-04T08:53:16;96499.00;;;10.11;72.28
39363;BME280;25088;43.238;23.110;2023-03-04T08:55:42;96491.06;;;10.09;74.54
39363;BME280;25088;43.238;23.110;2023-03-04T08:58:08;96507.22;;;10.16;76.46
39363;BME280;25088;43.238;23.110;2023-03-04T09:00:37;96497.69;;;10.19;75.75
39363;BME280;25088;43.238;23.110;2023-03-04T09:03:03;96508.84;;;10.34;75.14
39363;BME280;25088;43.238;23.110;2023-03-04T09:05:30;96507.03;;;10.40;74.96
39363;BME280;25088;43.238;23.110;2023-03-04T09:07:56;96502.72;;;10.49;74.36
39363;BME280;25088;43.238;23.110;2023-03-04T09:10:22;96479.72;;;10.40;74.56
39363;BME280;25088;43.238;23.110;2023-03-04T09:12:48;96490.28;;;10.58;74.10
39363;BME280;25088;43.238;23.110;2023-03-04T09:15:13;96485.56;;;10.75;74.97
39363;BME280;25088;43.238;23.110;2023-03-04T09:17:39;96492.13;;;10.74;76.08
39363;BME280;25088;43.238;23.110;2023-03-04T09:20:07;96489.00;;;10.66;72.50
39363;BME280;25088;43.238;23.110;2023-03-04T09:22:35;96482.06;;;10.80;69.32
39363;BME280;25088;43.238;23.110;2023-03-04T09:25:00;96464.38;;;10.87;69.40
39363;BME280;25088;43.238;23.110;2023-03-04T09:27:26;96458.91;;;10.87;69.05
39363;BME280;25088;43.238;23.110;2023-03-04T09:29:51;96475.81;;;11.17;66.23
39363;BME280;25088;43.238;23.110;2023-03-04T09:32:17;96478.25;;;11.45;63.91
39363;BME280;25088;43.238;23.110;2023-03-04T09:34:42;96466.56;;;11.55;61.41
39363;BME280;25088;43.238;23.110;2023-03-04T09:37:08;96457.69;;;11.80;61.13
39363;BME280;25088;43.238;23.110;2023-03-04T09:39:33;96460.53;;;11.95;61.54
39363;BME280;25088;43.238;23.110;2023-03-04T09:41:59;96466.94;;;12.26;59.55
39363;BME280;25088;43.238;23.110;2023-03-04T09:44:30;96467.00;;;12.47;60.19
39363;BME280;25088;43.238;23.110;2023-03-04T09:47:05;96455.53;;;12.50;61.16
39363;BME280;25088;43.238;23.110;2023-03-04T09:49:32;96458.59;;;12.58;60.02
39363;BME280;25088;43.238;23.110;2023-03-04T10:00:02;96444.38;;;13.12;57.43
39363;BME280;25088;43.238;23.110;2023-03-04T10:05:05;96440.81;;;13.42;55.36
39363;BME280;25088;43.238;23.110;2023-03-04T10:07:36;96426.81;;;13.64;56.03
39363;BME280;25088;43.238;23.110;2023-03-04T10:10:04;96438.06;;;13.73;55.51
39363;BME280;25088;43.238;23.110;2023-03-04T10:12:33;96435.28;;;13.88;56.57
39363;BME280;25088;43.238;23.110;2023-03-04T10:15:37;96427.25;;;13.97;55.82
39363;BME280;25088;43.238;23.110;2023-03-04T10:18:29;96428.16;;;13.87;54.65
39363;BME280;25088;43.238;23.110;2023-03-04T10:21:00;96422.59;;;14.03;53.54
39363;BME280;25088;43.238;23.110;2023-03-04T10:23:28;96419.56;;;14.09;54.47
39363;BME280;25088;43.238;23.110;2023-03-04T10:25:55;96406.31;;;14.21;52.22
39363;BME280;25088;43.238;23.110;2023-03-04T10:28:29;96410.03;;;14.46;52.60
39363;BME280;25088;43.238;23.110;2023-03-04T10:31:03;96405.34;;;14.52;51.96
39363;BME280;25088;43.238;23.110;2023-03-04T10:33:34;96398.16;;;14.61;52.70
39363;BME280;25088;43.238;23.110;2023-03-04T10:36:10;96400.88;;;14.66;53.03
39363;BME280;25088;43.238;23.110;2023-03-04T10:38:41;96385.81;;;14.97;52.24
39363;BME280;25088;43.238;23.110;2023-03-04T10:41:12;96376.75;;;14.97;50.89
39363;BME280;25088;43.238;23.110;2023-03-04T10:43:38;96374.66;;;15.47;49.37
39363;BME280;25088;43.238;23.110;2023-03-04T10:46:03;96372.63;;;16.06;48.26
39363;BME280;25088;43.238;23.110;2023-03-04T10:48:30;96368.53;;;16.03;48.01
39363;BME280;25088;43.238;23.110;2023-03-04T10:51:31;96365.78;;;15.79;47.76
39363;BME280;25088;43.238;23.110;2023-03-04T10:54:06;96366.22;;;15.62;47.92
39363;BME280;25088;43.238;23.110;2023-03-04T10:56:34;96363.97;;;15.69;48.87
39363;BME280;25088;43.238;23.110;2023-03-04T10:59:33;96357.44;;;15.60;48.22
39363;BME280;25088;43.238;23.110;2023-03-04T11:07:30;96336.75;;;17.51;43.37
39363;BME280;25088;43.238;23.110;2023-03-04T11:10:06;96324.84;;;17.83;43.07
39363;BME280;25088;43.238;23.110;2023-03-04T11:12:33;96300.13;;;17.32;44.67
39363;BME280;25088;43.238;23.110;2023-03-04T11:15:00;96325.69;;;16.35;46.34
39363;BME280;25088;43.238;23.110;2023-03-04T11:17:56;96325.41;;;16.36;46.77
39363;BME280;25088;43.238;23.110;2023-03-04T11:20:36;96314.72;;;17.19;44.76
39363;BME280;25088;43.238;23.110;2023-03-04T11:23:09;96315.56;;;17.33;43.76
39363;BME280;25088;43.238;23.110;2023-03-04T11:25:39;96308.78;;;17.12;45.81
39363;BME280;25088;43.238;23.110;2023-03-04T11:28:22;96306.94;;;16.18;46.77
39363;BME280;25088;43.238;23.110;2023-03-04T11:30:58;96301.22;;;15.90;47.33
39363;BME280;25088;43.238;23.110;2023-03-04T11:36:31;96297.25;;;15.54;48.65
39363;BME280;25088;43.238;23.110;2023-03-04T11:38:58;96294.59;;;14.90;49.92
39363;BME280;25088;43.238;23.110;2023-03-04T11:41:40;96304.06;;;14.79;51.88
39363;BME280;25088;43.238;23.110;2023-03-04T11:44:07;96291.13;;;15.09;50.80
39363;BME280;25088;43.238;23.110;2023-03-04T11:52:30;96293.81;;;14.11;51.47
39363;BME280;25088;43.238;23.110;2023-03-04T12:09:12;96267.63;;;16.12;48.66
39363;BME280;25088;43.238;23.110;2023-03-04T12:20:29;96245.41;;;18.17;41.98
39363;BME280;25088;43.238;23.110;2023-03-04T12:25:42;96216.75;;;18.71;40.68
39363;BME280;25088;43.238;23.110;2023-03-04T12:31:06;96232.75;;;18.60;40.54
39363;BME280;25088;43.238;23.110;2023-03-04T12:33:49;96240.84;;;18.34;41.38
39363;BME280;25088;43.238;23.110;2023-03-04T12:36:34;96231.09;;;18.59;41.32
39363;BME280;25088;43.238;23.110;2023-03-04T12:39:40;96230.34;;;18.23;41.34
39363;BME280;25088;43.238;23.110;2023-03-04T12:44:41;96229.31;;;17.55;42.41
39363;BME280;25088;43.238;23.110;2023-03-04T12:54:57;96216.41;;;16.63;45.35
39363;BME280;25088;43.238;23.110;2023-03-04T12:57:27;96215.66;;;16.06;46.22
39363;BME280;25088;43.238;23.110;2023-03-04T13:02:54;96217.53;;;15.91;46.42
39363;BME280;25088;43.238;23.110;2023-03-04T13:08:12;96189.25;;;17.16;44.75
39363;BME280;25088;43.238;23.110;2023-03-04T13:10:40;96187.19;;;16.94;45.31
39363;BME280;25088;43.238;23.110;2023-03-04T13:19:42;96197.13;;;14.83;49.12
39363;BME280;25088;43.238;23.110;2023-03-04T13:22:54;96194.81;;;14.32;50.33
39363;BME280;25088;43.238;23.110;2023-03-04T13:25:46;96193.63;;;14.09;50.79
39363;BME280;25088;43.238;23.110;2023-03-04T13:28:19;96190.25;;;13.83;51.67
39363;BME280;25088;43.238;23.110;2023-03-04T13:43:48;96182.41;;;13.66;51.94
39363;BME280;25088;43.238;23.110;2023-03-04T13:56:41;96178.47;;;13.38;53.99
39363;BME280;25088;43.238;23.110;2023-03-04T14:06:57;96167.91;;;12.90;54.46
39363;BME280;25088;43.238;23.110;2023-03-04T14:12:13;96156.50;;;12.68;55.55
39363;BME280;25088;43.238;23.110;2023-03-04T14:14:53;96164.16;;;12.61;55.52
39363;BME280;25088;43.238;23.110;2023-03-04T14:17:27;96165.28;;;12.50;56.45
39363;BME280;25088;43.238;23.110;2023-03-04T14:19:54;96152.94;;;12.62;56.45
39363;BME280;25088;43.238;23.110;2023-03-04T14:22:27;96162.53;;;12.55;56.87
39363;BME280;25088;43.238;23.110;2023-03-04T14:27:24;96144.50;;;12.49;56.83
39363;BME280;25088;43.238;23.110;2023-03-04T14:29:58;96148.31;;;12.42;57.57
39363;BME280;25088;43.238;23.110;2023-03-04T14:32:25;96102.91;;;12.31;56.57
39363;BME280;25088;43.238;23.110;2023-03-04T14:34:55;96146.63;;;12.67;56.32
39363;BME280;25088;43.238;23.110;2023-03-04T14:37:25;96133.75;;;12.67;56.68
39363;BME280;25088;43.238;23.110;2023-03-04T14:39:55;96149.97;;;12.49;57.48
39363;BME280;25088;43.238;23.110;2023-03-04T14:42:22;96140.91;;;12.43;57.42
39363;BME280;25088;43.238;23.110;2023-03-04T14:44:50;96142.31;;;12.35;57.60
39363;BME280;25088;43.238;23.110;2023-03-04T14:47:23;96131.38;;;12.40;57.54
39363;BME280;25088;43.238;23.110;2023-03-04T14:49:51;96125.91;;;12.35;57.23
39363;BME280;25088;43.238;23.110;2023-03-04T14:52:34;96134.91;;;12.41;57.61